Global Endeavor — 3EOJ9 — position and weather

sailwx.info

Track history (hours):
 
Tides and Currents Weather Stations Pressure Air Temp Water Temp Dewpoint Dewpoint Depression Visibility Wind Speed Wind Dir Waves Ship Positions

Global Endeavor

Last reported at 2016-Nov-17 13:33 UTC. Time now 2016-Dec-07 14:28 UTC.
Position N 48°31' W 126°31'.
Warning: this ship's position is 20 days out of date.

Length 175 m; draft 9.7 m.

Type: Cargo ship. MMSI: 356619000.

Date/timePositionNaut miles runAvg speedWind from/ knotsBaromVisibWave heightAir tempDewpointWater temp
2016-Nov-17 13:33N 48°31' W 126°31'8 8.0
2016-Nov-17 12:33N 48°31' W 126°19'8 8.2
2016-Nov-17 11:33N 48°31' W 126°07'24 8.1
2016-Nov-17 08:33N 48°31' W 125°30'16 8.0
2016-Nov-17 06:33N 48°31' W 125°06'39 9.8
2016-Nov-17 02:33N 48°21' W 124°09'30 9.9
2016-Nov-16 23:33N 48°13' W 123°26'8 8.3
2016-Nov-16 22:33N 48°10' W 123°14'2410.4
2016-Nov-16 20:13N 48°05' W 122°39'813.0
2016-Nov-16 19:33N 47°57' W 122°33'1211.9
2016-Nov-16 18:33N 47°46' W 122°26'1111.0
2016-Nov-16 17:33N 47°35' W 122°26'1111.3
2016-Nov-16 16:33N 47°25' W 122°32'27 0.7
2016-Nov-15 00:33N 47°03' W 122°54'0 0.0
2016-Nov-14 17:15N 47°03' W 122°54'0 0.0
2016-Nov-14 16:33N 47°03' W 122°54'0 0.0
2016-Nov-13 15:12N 47°03' W 122°54'0 0.0
2016-Nov-13 10:06N 47°03' W 122°54'0 0.0
2016-Nov-13 05:18N 47°03' W 122°54'0 0.0
2016-Nov-12 23:27N 47°03' W 122°54'0 0.0
2016-Nov-12 13:12N 47°03' W 122°54'0 0.0
2016-Nov-12 09:24N 47°03' W 122°54'0 0.0
2016-Nov-12 06:33N 47°03' W 122°54'0 0.0
2016-Nov-12 02:30N 47°03' W 122°54'0 0.0
2016-Nov-12 00:21N 47°03' W 122°54'0 0.0
2016-Nov-11 19:12N 47°03' W 122°54'0 0.0
2016-Nov-11 05:33N 47°03' W 122°54'0 0.0
2016-Nov-11 04:33N 47°03' W 122°54'0 0.0
2016-Nov-11 03:24N 47°03' W 122°54'0 0.0
2016-Nov-11 02:24N 47°03' W 122°54'0 0.0
2016-Nov-09 20:28N 47°03' W 122°54'6 3.8
2016-Nov-09 18:56N 47°09' W 122°55'410.9
2016-Nov-09 18:33N 47°11' W 122°50'9 9.1
2016-Nov-09 17:33N 47°12' W 122°36'2613.0
2016-Nov-09 15:33N 47°37' W 122°27'20 9.9
2016-Nov-09 13:33N 47°56' W 122°32'46 9.2
2016-Nov-09 08:33N 48°13' W 123°37'8 7.6
2016-Nov-09 07:33N 48°13' W 123°48'2110.7
2016-Nov-09 05:33N 48°21' W 124°18'1212.3
2016-Nov-09 04:33N 48°26' W 124°35'17 8.5
2016-Nov-09 02:33N 48°28' W 125°01'23 7.6
2016-Nov-08 23:34N 48°29' W 125°35'6 6.5
2016-Nov-08 22:33N 48°29' W 125°45'7 6.6
2016-Nov-08 21:33N 48°29' W 125°55'7 7.3
2016-Nov-08 20:33N 48°29' W 126°06'7 6.6
2016-Nov-08 19:33N 48°29' W 126°16'7 5.9
2016-Nov-08 18:25N 48°31' W 126°25'  
Track history (hours):
 
Tides and Currents Weather Stations Pressure Air Temp Water Temp Dewpoint Dewpoint Depression Visibility Wind Speed Wind Dir Waves Ship Positions

Global Endeavor

Last reported at 2016-Nov-17 13:33 UTC. Time now 2016-Dec-07 14:28 UTC.
Position N 48°31' W 126°31'.
Warning: this ship's position is 20 days out of date.

Length 175 m; draft 9.7 m.

Type: Cargo ship. MMSI: 356619000.

Date/timePositionNaut miles runAvg speedWind from/ knotsBaromVisibWave heightAir tempDewpointWater temp
2016-Nov-17 13:33N 48°31' W 126°31'8 8.0
2016-Nov-17 12:33N 48°31' W 126°19'8 8.2
2016-Nov-17 11:33N 48°31' W 126°07'24 8.1
2016-Nov-17 08:33N 48°31' W 125°30'16 8.0
2016-Nov-17 06:33N 48°31' W 125°06'39 9.8
2016-Nov-17 02:33N 48°21' W 124°09'30 9.9
2016-Nov-16 23:33N 48°13' W 123°26'8 8.3
2016-Nov-16 22:33N 48°10' W 123°14'2410.4
2016-Nov-16 20:13N 48°05' W 122°39'813.0
2016-Nov-16 19:33N 47°57' W 122°33'1211.9
2016-Nov-16 18:33N 47°46' W 122°26'1111.0
2016-Nov-16 17:33N 47°35' W 122°26'1111.3
2016-Nov-16 16:33N 47°25' W 122°32'27 0.7
2016-Nov-15 00:33N 47°03' W 122°54'0 0.0
2016-Nov-14 17:15N 47°03' W 122°54'0 0.0
2016-Nov-14 16:33N 47°03' W 122°54'0 0.0
2016-Nov-13 15:12N 47°03' W 122°54'0 0.0
2016-Nov-13 10:06N 47°03' W 122°54'0 0.0
2016-Nov-13 05:18N 47°03' W 122°54'0 0.0
2016-Nov-12 23:27N 47°03' W 122°54'0 0.0
2016-Nov-12 13:12N 47°03' W 122°54'0 0.0
2016-Nov-12 09:24N 47°03' W 122°54'0 0.0
2016-Nov-12 06:33N 47°03' W 122°54'0 0.0
2016-Nov-12 02:30N 47°03' W 122°54'0 0.0
2016-Nov-12 00:21N 47°03' W 122°54'0 0.0
2016-Nov-11 19:12N 47°03' W 122°54'0 0.0
2016-Nov-11 05:33N 47°03' W 122°54'0 0.0
2016-Nov-11 04:33N 47°03' W 122°54'0 0.0
2016-Nov-11 03:24N 47°03' W 122°54'0 0.0
2016-Nov-11 02:24N 47°03' W 122°54'0 0.0
2016-Nov-09 20:28N 47°03' W 122°54'6 3.8
2016-Nov-09 18:56N 47°09' W 122°55'410.9
2016-Nov-09 18:33N 47°11' W 122°50'9 9.1
2016-Nov-09 17:33N 47°12' W 122°36'2613.0
2016-Nov-09 15:33N 47°37' W 122°27'20 9.9
2016-Nov-09 13:33N 47°56' W 122°32'46 9.2
2016-Nov-09 08:33N 48°13' W 123°37'8 7.6
2016-Nov-09 07:33N 48°13' W 123°48'2110.7
2016-Nov-09 05:33N 48°21' W 124°18'1212.3
2016-Nov-09 04:33N 48°26' W 124°35'17 8.5
2016-Nov-09 02:33N 48°28' W 125°01'23 7.6
2016-Nov-08 23:34N 48°29' W 125°35'6 6.5
2016-Nov-08 22:33N 48°29' W 125°45'7 6.6
2016-Nov-08 21:33N 48°29' W 125°55'7 7.3
2016-Nov-08 20:33N 48°29' W 126°06'7 6.6
2016-Nov-08 19:33N 48°29' W 126°16'7 5.9
2016-Nov-08 18:25N 48°31' W 126°25'  

Dump ship's entire track history